sensor_id;sensor_type;location;lat;lon;timestamp;temperature;humidity
78325;DHT22;67584;51.400;6.692;2023-09-30T00:00:36;11.30;92.20
78325;DHT22;67584;51.400;6.692;2023-09-30T00:03:02;11.10;92.20
78325;DHT22;67584;51.400;6.692;2023-09-30T00:05:28;11.40;92.20
78325;DHT22;67584;51.400;6.692;2023-09-30T00:07:54;11.40;92.20
78325;DHT22;67584;51.400;6.692;2023-09-30T00:10:20;11.40;92.20
78325;DHT22;67584;51.400;6.692;2023-09-30T00:12:45;11.30;92.20
78325;DHT22;67584;51.400;6.692;2023-09-30T00:15:11;11.30;92.20
78325;DHT22;67584;51.400;6.692;2023-09-30T00:17:37;11.20;92.20
78325;DHT22;67584;51.400;6.692;2023-09-30T00:20:02;11.50;92.20
78325;DHT22;67584;51.400;6.692;2023-09-30T00:22:29;11.50;92.20
78325;DHT22;67584;51.400;6.692;2023-09-30T00:24:55;11.50;92.20
78325;DHT22;67584;51.400;6.692;2023-09-30T00:27:21;11.40;92.20
78325;DHT22;67584;51.400;6.692;2023-09-30T00:29:46;11.40;92.20
78325;DHT22;67584;51.400;6.692;2023-09-30T00:32:12;11.40;92.20
78325;DHT22;67584;51.400;6.692;2023-09-30T00:34:38;11.30;92.20
78325;DHT22;67584;51.400;6.692;2023-09-30T00:37:04;11.30;92.20
78325;DHT22;67584;51.400;6.692;2023-09-30T00:39:29;11.20;92.20
78325;DHT22;67584;51.400;6.692;2023-09-30T00:41:59;11.40;92.20
78325;DHT22;67584;51.400;6.692;2023-09-30T00:44:25;11.40;92.20
78325;DHT22;67584;51.400;6.692;2023-09-30T00:46:51;11.40;92.20
78325;DHT22;67584;51.400;6.692;2023-09-30T00:49:17;11.50;92.20
78325;DHT22;67584;51.400;6.692;2023-09-30T00:51:45;11.50;92.20
78325;DHT22;67584;51.400;6.692;2023-09-30T00:54:11;11.50;92.20
78325;DHT22;67584;51.400;6.692;2023-09-30T00:56:44;11.50;92.20
78325;DHT22;67584;51.400;6.692;2023-09-30T00:59:14;11.40;92.20
78325;DHT22;67584;51.400;6.692;2023-09-30T01:01:44;11.50;92.20
78325;DHT22;67584;51.400;6.692;2023-09-30T01:04:14;11.50;92.20
78325;DHT22;67584;51.400;6.692;2023-09-30T01:06:40;11.50;92.20
78325;DHT22;67584;51.400;6.692;2023-09-30T01:09:07;11.50;92.20
78325;DHT22;67584;51.400;6.692;2023-09-30T01:11:34;11.70;92.20
78325;DHT22;67584;51.400;6.692;2023-09-30T01:14:00;11.70;92.20
78325;DHT22;67584;51.400;6.692;2023-09-30T01:16:25;11.70;92.20
78325;DHT22;67584;51.400;6.692;2023-09-30T01:18:51;11.70;92.20
78325;DHT22;67584;51.400;6.692;2023-09-30T01:21:18;11.60;92.20
78325;DHT22;67584;51.400;6.692;2023-09-30T01:23:43;11.80;92.20
78325;DHT22;67584;51.400;6.692;2023-09-30T01:26:13;11.70;92.20
78325;DHT22;67584;51.400;6.692;2023-09-30T01:28:40;11.70;92.20
78325;DHT22;67584;51.400;6.692;2023-09-30T01:31:06;11.70;92.20
78325;DHT22;67584;51.400;6.692;2023-09-30T01:33:32;11.60;92.20
78325;DHT22;67584;51.400;6.692;2023-09-30T01:35:59;11.60;92.20
78325;DHT22;67584;51.400;6.692;2023-09-30T01:38:26;11.50;92.20
78325;DHT22;67584;51.400;6.692;2023-09-30T01:40:51;11.60;92.20
78325;DHT22;67584;51.400;6.692;2023-09-30T01:43:17;11.60;92.20
78325;DHT22;67584;51.400;6.692;2023-09-30T01:45:43;11.50;92.20
78325;DHT22;67584;51.400;6.692;2023-09-30T01:48:10;11.40;92.20
78325;DHT22;67584;51.400;6.692;2023-09-30T01:50:39;11.40;92.20
78325;DHT22;67584;51.400;6.692;2023-09-30T01:53:08;11.20;92.20
78325;DHT22;67584;51.400;6.692;2023-09-30T01:55:38;11.10;92.20
78325;DHT22;67584;51.400;6.692;2023-09-30T01:58:03;11.10;92.20
78325;DHT22;67584;51.400;6.692;2023-09-30T02:00:29;11.20;92.20
78325;DHT22;67584;51.400;6.692;2023-09-30T02:02:56;11.00;92.20
78325;DHT22;67584;51.400;6.692;2023-09-30T02:05:22;11.00;92.20
78325;DHT22;67584;51.400;6.692;2023-09-30T02:07:50;10.90;92.20
78325;DHT22;67584;51.400;6.692;2023-09-30T02:10:16;10.90;92.20
78325;DHT22;67584;51.400;6.692;2023-09-30T02:12:47;10.90;92.20
78325;DHT22;67584;51.400;6.692;2023-09-30T02:15:14;11.00;92.20
78325;DHT22;67584;51.400;6.692;2023-09-30T02:17:39;11.20;92.20
78325;DHT22;67584;51.400;6.692;2023-09-30T02:20:06;11.10;92.20
78325;DHT22;67584;51.400;6.692;2023-09-30T02:22:39;11.20;92.20
78325;DHT22;67584;51.400;6.692;2023-09-30T02:25:06;11.30;92.20
78325;DHT22;67584;51.400;6.692;2023-09-30T02:27:34;11.30;92.20
78325;DHT22;67584;51.400;6.692;2023-09-30T02:29:59;11.30;92.20
78325;DHT22;67584;51.400;6.692;2023-09-30T02:32:25;11.20;92.20
78325;DHT22;67584;51.400;6.692;2023-09-30T02:34:51;11.40;92.20
78325;DHT22;67584;51.400;6.692;2023-09-30T02:37:17;11.50;92.20
78325;DHT22;67584;51.400;6.692;2023-09-30T02:39:44;11.40;92.20
78325;DHT22;67584;51.400;6.692;2023-09-30T02:42:10;11.40;92.20
78325;DHT22;67584;51.400;6.692;2023-09-30T02:44:35;11.20;92.20
78325;DHT22;67584;51.400;6.692;2023-09-30T02:47:01;11.10;92.20
78325;DHT22;67584;51.400;6.692;2023-09-30T02:49:27;11.00;92.20
78325;DHT22;67584;51.400;6.692;2023-09-30T02:51:54;10.80;92.20
78325;DHT22;67584;51.400;6.692;2023-09-30T02:54:20;10.70;92.20
78325;DHT22;67584;51.400;6.692;2023-09-30T02:56:58;10.60;92.20
78325;DHT22;67584;51.400;6.692;2023-09-30T02:59:24;10.60;92.20
78325;DHT22;67584;51.400;6.692;2023-09-30T03:01:50;10.50;92.20
78325;DHT22;67584;51.400;6.692;2023-09-30T03:04:15;10.50;92.20
78325;DHT22;67584;51.400;6.692;2023-09-30T03:06:45;10.40;92.20
78325;DHT22;67584;51.400;6.692;2023-09-30T03:09:11;10.30;92.20
78325;DHT22;67584;51.400;6.692;2023-09-30T03:11:40;10.40;92.20
78325;DHT22;67584;51.400;6.692;2023-09-30T03:14:09;10.40;92.20
78325;DHT22;67584;51.400;6.692;2023-09-30T03:16:35;10.40;92.20
78325;DHT22;67584;51.400;6.692;2023-09-30T03:19:04;10.40;92.20
78325;DHT22;67584;51.400;6.692;2023-09-30T03:21:30;10.40;92.20
78325;DHT22;67584;51.400;6.692;2023-09-30T03:23:56;10.40;92.20
78325;DHT22;67584;51.400;6.692;2023-09-30T03:26:22;10.40;92.20
78325;DHT22;67584;51.400;6.692;2023-09-30T03:28:47;10.40;92.20
78325;DHT22;67584;51.400;6.692;2023-09-30T03:31:19;10.50;92.20
78325;DHT22;67584;51.400;6.692;2023-09-30T03:33:45;10.50;92.20
78325;DHT22;67584;51.400;6.692;2023-09-30T03:36:13;10.50;92.20
78325;DHT22;67584;51.400;6.692;2023-09-30T03:38:40;10.50;92.20
78325;DHT22;67584;51.400;6.692;2023-09-30T03:41:07;10.60;92.20
78325;DHT22;67584;51.400;6.692;2023-09-30T03:43:34;10.60;92.20
78325;DHT22;67584;51.400;6.692;2023-09-30T03:46:06;10.50;92.20
78325;DHT22;67584;51.400;6.692;2023-09-30T03:48:32;10.40;92.20
78325;DHT22;67584;51.400;6.692;2023-09-30T03:50:58;10.50;92.20
78325;DHT22;67584;51.400;6.692;2023-09-30T03:53:32;10.50;92.20
78325;DHT22;67584;51.400;6.692;2023-09-30T03:55:58;10.40;92.20
78325;DHT22;67584;51.400;6.692;2023-09-30T03:58:23;10.40;92.20
78325;DHT22;67584;51.400;6.692;2023-09-30T04:00:49;10.40;92.20
78325;DHT22;67584;51.400;6.692;2023-09-30T04:03:17;10.30;92.20
78325;DHT22;67584;51.400;6.692;2023-09-30T04:05:42;10.30;92.20
78325;DHT22;67584;51.400;6.692;2023-09-30T04:08:08;10.30;92.20
78325;DHT22;67584;51.400;6.692;2023-09-30T04:10:34;10.30;92.20
78325;DHT22;67584;51.400;6.692;2023-09-30T04:12:59;10.30;92.20
78325;DHT22;67584;51.400;6.692;2023-09-30T04:15:25;10.40;92.20
78325;DHT22;67584;51.400;6.692;2023-09-30T04:17:51;10.30;92.20
78325;DHT22;67584;51.400;6.692;2023-09-30T04:20:19;10.30;92.20
78325;DHT22;67584;51.400;6.692;2023-09-30T04:22:49;10.20;92.20
78325;DHT22;67584;51.400;6.692;2023-09-30T04:25:16;10.20;92.20
78325;DHT22;67584;51.400;6.692;2023-09-30T04:27:45;10.30;92.20
78325;DHT22;67584;51.400;6.692;2023-09-30T04:30:11;10.40;92.20
78325;DHT22;67584;51.400;6.692;2023-09-30T04:32:38;10.30;92.20
78325;DHT22;67584;51.400;6.692;2023-09-30T04:35:07;10.30;92.20
78325;DHT22;67584;51.400;6.692;2023-09-30T04:37:37;10.40;92.20
78325;DHT22;67584;51.400;6.692;2023-09-30T04:40:07;10.50;92.20
78325;DHT22;67584;51.400;6.692;2023-09-30T04:42:34;10.30;92.20
78325;DHT22;67584;51.400;6.692;2023-09-30T04:45:03;10.40;92.20
78325;DHT22;67584;51.400;6.692;2023-09-30T04:47:31;10.40;92.20
78325;DHT22;67584;51.400;6.692;2023-09-30T04:49:57;10.50;92.20
78325;DHT22;67584;51.400;6.692;2023-09-30T04:52:23;10.50;92.20
78325;DHT22;67584;51.400;6.692;2023-09-30T04:54:53;10.50;92.20
78325;DHT22;67584;51.400;6.692;2023-09-30T04:57:18;10.50;92.20
78325;DHT22;67584;51.400;6.692;2023-09-30T04:59:44;10.60;92.20
78325;DHT22;67584;51.400;6.692;2023-09-30T05:02:12;10.50;92.20
78325;DHT22;67584;51.400;6.692;2023-09-30T05:04:40;10.50;92.20
78325;DHT22;67584;51.400;6.692;2023-09-30T05:07:07;10.50;92.20
78325;DHT22;67584;51.400;6.692;2023-09-30T05:09:32;10.50;92.20
78325;DHT22;67584;51.400;6.692;2023-09-30T05:11:58;10.40;92.20
78325;DHT22;67584;51.400;6.692;2023-09-30T05:14:24;10.50;92.20
78325;DHT22;67584;51.400;6.692;2023-09-30T05:16:50;10.50;92.20
78325;DHT22;67584;51.400;6.692;2023-09-30T05:19:15;10.50;92.20
78325;DHT22;67584;51.400;6.692;2023-09-30T05:21:42;10.40;92.20
78325;DHT22;67584;51.400;6.692;2023-09-30T05:24:08;10.40;92.20
78325;DHT22;67584;51.400;6.692;2023-09-30T05:26:34;10.50;92.20
78325;DHT22;67584;51.400;6.692;2023-09-30T05:28:59;10.60;92.20
78325;DHT22;67584;51.400;6.692;2023-09-30T05:31:25;10.50;92.20
78325;DHT22;67584;51.400;6.692;2023-09-30T05:33:51;10.60;92.20
78325;DHT22;67584;51.400;6.692;2023-09-30T05:36:16;10.60;92.20
78325;DHT22;67584;51.400;6.692;2023-09-30T05:38:42;10.70;92.20
78325;DHT22;67584;51.400;6.692;2023-09-30T05:41:08;10.60;92.20
78325;DHT22;67584;51.400;6.692;2023-09-30T05:43:34;10.70;92.20
78325;DHT22;67584;51.400;6.692;2023-09-30T05:45:59;10.70;92.20
78325;DHT22;67584;51.400;6.692;2023-09-30T05:48:25;10.70;92.20
78325;DHT22;67584;51.400;6.692;2023-09-30T05:50:51;10.80;92.20
78325;DHT22;67584;51.400;6.692;2023-09-30T05:53:17;10.80;92.20
78325;DHT22;67584;51.400;6.692;2023-09-30T05:55:43;10.80;92.20
78325;DHT22;67584;51.400;6.692;2023-09-30T05:58:09;10.90;92.20
78325;DHT22;67584;51.400;6.692;2023-09-30T06:00:42;10.90;92.20
78325;DHT22;67584;51.400;6.692;2023-09-30T06:03:08;10.90;92.20
78325;DHT22;67584;51.400;6.692;2023-09-30T06:05:41;11.00;92.20
78325;DHT22;67584;51.400;6.692;2023-09-30T06:08:09;11.10;92.20
78325;DHT22;67584;51.400;6.692;2023-09-30T06:10:42;11.10;92.20
78325;DHT22;67584;51.400;6.692;2023-09-30T06:13:09;11.10;92.20
78325;DHT22;67584;51.400;6.692;2023-09-30T06:15:41;11.10;92.20
78325;DHT22;67584;51.400;6.692;2023-09-30T06:18:08;11.30;92.20
78325;DHT22;67584;51.400;6.692;2023-09-30T06:20:35;11.30;92.20
78325;DHT22;67584;51.400;6.692;2023-09-30T06:23:01;11.40;92.20
78325;DHT22;67584;51.400;6.692;2023-09-30T06:25:27;11.50;92.20
78325;DHT22;67584;51.400;6.692;2023-09-30T06:27:54;11.40;92.20
78325;DHT22;67584;51.400;6.692;2023-09-30T06:30:20;11.50;92.20
78325;DHT22;67584;51.400;6.692;2023-09-30T06:32:47;11.60;92.20
78325;DHT22;67584;51.400;6.692;2023-09-30T06:35:13;11.90;92.20
78325;DHT22;67584;51.400;6.692;2023-09-30T06:37:40;11.90;92.20
78325;DHT22;67584;51.400;6.692;2023-09-30T06:40:07;12.00;92.20
78325;DHT22;67584;51.400;6.692;2023-09-30T06:42:35;12.10;92.20
78325;DHT22;67584;51.400;6.692;2023-09-30T06:45:01;12.20;92.20
78325;DHT22;67584;51.400;6.692;2023-09-30T06:47:35;12.30;92.20
78325;DHT22;67584;51.400;6.692;2023-09-30T06:50:09;12.40;92.20
78325;DHT22;67584;51.400;6.692;2023-09-30T06:52:40;12.40;92.20
78325;DHT22;67584;51.400;6.692;2023-09-30T06:55:07;12.50;92.20
78325;DHT22;67584;51.400;6.692;2023-09-30T06:57:35;12.60;92.20
78325;DHT22;67584;51.400;6.692;2023-09-30T07:00:04;12.70;92.20
78325;DHT22;67584;51.400;6.692;2023-09-30T07:02:33;12.70;92.20
78325;DHT22;67584;51.400;6.692;2023-09-30T07:04:59;12.80;92.20
78325;DHT22;67584;51.400;6.692;2023-09-30T07:07:25;12.80;92.20
78325;DHT22;67584;51.400;6.692;2023-09-30T07:09:50;12.90;92.20
78325;DHT22;67584;51.400;6.692;2023-09-30T07:12:16;12.90;92.20
78325;DHT22;67584;51.400;6.692;2023-09-30T07:14:42;13.00;92.20
78325;DHT22;67584;51.400;6.692;2023-09-30T07:17:08;13.00;92.20
78325;DHT22;67584;51.400;6.692;2023-09-30T07:19:33;13.10;92.20
78325;DHT22;67584;51.400;6.692;2023-09-30T07:21:59;13.20;92.20
78325;DHT22;67584;51.400;6.692;2023-09-30T07:24:25;13.30;92.20
78325;DHT22;67584;51.400;6.692;2023-09-30T07:26:50;13.30;92.20
78325;DHT22;67584;51.400;6.692;2023-09-30T07:29:16;13.40;92.20
78325;DHT22;67584;51.400;6.692;2023-09-30T07:31:42;13.50;92.20
78325;DHT22;67584;51.400;6.692;2023-09-30T07:34:07;13.60;92.20
78325;DHT22;67584;51.400;6.692;2023-09-30T07:36:33;13.70;92.20
78325;DHT22;67584;51.400;6.692;2023-09-30T07:38:59;13.80;92.20
78325;DHT22;67584;51.400;6.692;2023-09-30T07:41:27;14.00;92.20
78325;DHT22;67584;51.400;6.692;2023-09-30T07:43:52;14.00;92.10
78325;DHT22;67584;51.400;6.692;2023-09-30T07:46:18;14.10;92.10
78325;DHT22;67584;51.400;6.692;2023-09-30T07:48:43;14.20;92.00
78325;DHT22;67584;51.400;6.692;2023-09-30T07:51:09;14.40;92.00
78325;DHT22;67584;51.400;6.692;2023-09-30T07:53:39;14.40;92.00
78325;DHT22;67584;51.400;6.692;2023-09-30T07:56:06;14.50;92.00
78325;DHT22;67584;51.400;6.692;2023-09-30T07:58:31;14.60;91.80
78325;DHT22;67584;51.400;6.692;2023-09-30T08:00:58;14.60;91.40
78325;DHT22;67584;51.400;6.692;2023-09-30T08:03:24;14.70;90.70
78325;DHT22;67584;51.400;6.692;2023-09-30T08:05:49;14.70;90.50
78325;DHT22;67584;51.400;6.692;2023-09-30T08:08:16;14.80;90.60
78325;DHT22;67584;51.400;6.692;2023-09-30T08:10:42;14.80;90.60
78325;DHT22;67584;51.400;6.692;2023-09-30T08:13:08;14.80;89.70
78325;DHT22;67584;51.400;6.692;2023-09-30T08:15:35;14.80;89.80
78325;DHT22;67584;51.400;6.692;2023-09-30T08:18:02;14.80;89.80
78325;DHT22;67584;51.400;6.692;2023-09-30T08:20:29;15.00;90.10
78325;DHT22;67584;51.400;6.692;2023-09-30T08:22:55;15.20;89.70
78325;DHT22;67584;51.400;6.692;2023-09-30T08:25:21;15.30;88.80
78325;DHT22;67584;51.400;6.692;2023-09-30T08:27:47;15.40;88.90
78325;DHT22;67584;51.400;6.692;2023-09-30T08:30:15;15.60;89.20
78325;DHT22;67584;51.400;6.692;2023-09-30T08:32:41;15.70;88.20
78325;DHT22;67584;51.400;6.692;2023-09-30T08:35:07;15.90;88.40
78325;DHT22;67584;51.400;6.692;2023-09-30T08:37:33;15.90;88.00
78325;DHT22;67584;51.400;6.692;2023-09-30T08:39:59;16.00;87.50
78325;DHT22;67584;51.400;6.692;2023-09-30T08:42:27;16.20;87.10
78325;DHT22;67584;51.400;6.692;2023-09-30T08:44:58;16.30;86.00
78325;DHT22;67584;51.400;6.692;2023-09-30T08:47:26;16.40;86.30
78325;DHT22;67584;51.400;6.692;2023-09-30T08:49:54;16.70;85.80
78325;DHT22;67584;51.400;6.692;2023-09-30T08:52:23;16.80;85.40
78325;DHT22;67584;51.400;6.692;2023-09-30T08:54:50;17.00;84.90
78325;DHT22;67584;51.400;6.692;2023-09-30T08:57:18;17.10;84.20
78325;DHT22;67584;51.400;6.692;2023-09-30T08:59:46;17.30;83.40
78325;DHT22;67584;51.400;6.692;2023-09-30T09:02:14;17.40;83.80
78325;DHT22;67584;51.400;6.692;2023-09-30T09:04:40;17.90;82.70
78325;DHT22;67584;51.400;6.692;2023-09-30T09:07:05;18.20;83.00
78325;DHT22;67584;51.400;6.692;2023-09-30T09:09:31;18.50;80.60
78325;DHT22;67584;51.400;6.692;2023-09-30T09:11:58;19.00;80.30
78325;DHT22;67584;51.400;6.692;2023-09-30T09:14:42;19.30;76.30
78325;DHT22;67584;51.400;6.692;2023-09-30T09:17:10;19.70;77.80
78325;DHT22;67584;51.400;6.692;2023-09-30T09:19:35;20.30;76.10
78325;DHT22;67584;51.400;6.692;2023-09-30T09:22:03;21.00;74.50
78325;DHT22;67584;51.400;6.692;2023-09-30T09:24:33;21.00;73.20
78325;DHT22;67584;51.400;6.692;2023-09-30T09:27:09;22.00;66.60
78325;DHT22;67584;51.400;6.692;2023-09-30T09:29:36;22.40;69.10
78325;DHT22;67584;51.400;6.692;2023-09-30T09:32:12;22.80;66.80
78325;DHT22;67584;51.400;6.692;2023-09-30T09:34:39;23.60;65.50
78325;DHT22;67584;51.400;6.692;2023-09-30T09:37:19;24.80;58.60
78325;DHT22;67584;51.400;6.692;2023-09-30T09:39:58;24.60;56.70
78325;DHT22;67584;51.400;6.692;2023-09-30T09:42:28;24.70;60.40
78325;DHT22;67584;51.400;6.692;2023-09-30T09:44:57;25.20;55.80
78325;DHT22;67584;51.400;6.692;2023-09-30T09:47:23;23.90;57.70
78325;DHT22;67584;51.400;6.692;2023-09-30T09:49:50;23.10;60.70
78325;DHT22;67584;51.400;6.692;2023-09-30T09:52:18;23.70;61.00
78325;DHT22;67584;51.400;6.692;2023-09-30T09:54:45;24.70;57.60
78325;DHT22;67584;51.400;6.692;2023-09-30T09:57:12;24.40;57.70
78325;DHT22;67584;51.400;6.692;2023-09-30T09:59:39;23.20;60.00
78325;DHT22;67584;51.400;6.692;2023-09-30T10:02:12;24.60;55.00
78325;DHT22;67584;51.400;6.692;2023-09-30T10:04:46;25.40;54.80
78325;DHT22;67584;51.400;6.692;2023-09-30T10:07:21;26.10;51.00
78325;DHT22;67584;51.400;6.692;2023-09-30T10:09:49;24.20;54.40
78325;DHT22;67584;51.400;6.692;2023-09-30T10:12:17;23.40;56.60
78325;DHT22;67584;51.400;6.692;2023-09-30T10:14:43;24.40;56.70
78325;DHT22;67584;51.400;6.692;2023-09-30T10:17:09;24.30;55.90
78325;DHT22;67584;51.400;6.692;2023-09-30T10:19:35;23.10;58.30
78325;DHT22;67584;51.400;6.692;2023-09-30T10:24:46;22.20;59.90
78325;DHT22;67584;51.400;6.692;2023-09-30T10:40:48;19.70;66.80
78325;DHT22;67584;51.400;6.692;2023-09-30T10:43:37;19.80;67.80
78325;DHT22;67584;51.400;6.692;2023-09-30T10:51:43;26.30;53.30
78325;DHT22;67584;51.400;6.692;2023-09-30T10:54:12;27.20;50.50
78325;DHT22;67584;51.400;6.692;2023-09-30T10:56:38;28.20;47.10
78325;DHT22;67584;51.400;6.692;2023-09-30T10:59:04;28.50;46.80
78325;DHT22;67584;51.400;6.692;2023-09-30T11:01:34;27.00;47.40
78325;DHT22;67584;51.400;6.692;2023-09-30T11:04:07;24.80;50.80
78325;DHT22;67584;51.400;6.692;2023-09-30T11:06:34;23.50;54.90
78325;DHT22;67584;51.400;6.692;2023-09-30T11:09:01;22.40;57.60
78325;DHT22;67584;51.400;6.692;2023-09-30T11:14:27;22.80;57.10
78325;DHT22;67584;51.400;6.692;2023-09-30T11:16:57;23.60;56.20
78325;DHT22;67584;51.400;6.692;2023-09-30T11:19:27;24.20;54.20
78325;DHT22;67584;51.400;6.692;2023-09-30T11:21:54;24.00;54.40
78325;DHT22;67584;51.400;6.692;2023-09-30T11:24:24;24.80;52.00
78325;DHT22;67584;51.400;6.692;2023-09-30T11:26:54;26.40;47.20
78325;DHT22;67584;51.400;6.692;2023-09-30T11:29:21;28.10;44.90
78325;DHT22;67584;51.400;6.692;2023-09-30T11:31:48;28.90;41.50
78325;DHT22;67584;51.400;6.692;2023-09-30T11:34:15;30.30;40.30
78325;DHT22;67584;51.400;6.692;2023-09-30T11:36:49;31.10;37.40
78325;DHT22;67584;51.400;6.692;2023-09-30T11:39:25;31.60;36.10
78325;DHT22;67584;51.400;6.692;2023-09-30T11:41:51;29.80;41.60
78325;DHT22;67584;51.400;6.692;2023-09-30T11:44:18;30.50;40.00
78325;DHT22;67584;51.400;6.692;2023-09-30T11:46:57;31.30;36.30
78325;DHT22;67584;51.400;6.692;2023-09-30T11:52:03;31.10;37.90
78325;DHT22;67584;51.400;6.692;2023-09-30T11:54:36;30.50;37.70
78325;DHT22;67584;51.400;6.692;2023-09-30T11:57:15;29.30;39.60
78325;DHT22;67584;51.400;6.692;2023-09-30T11:59:42;28.40;41.40
78325;DHT22;67584;51.400;6.692;2023-09-30T12:02:15;28.10;38.70
78325;DHT22;67584;51.400;6.692;2023-09-30T12:04:43;26.80;43.20
78325;DHT22;67584;51.400;6.692;2023-09-30T12:07:09;25.60;44.80
78325;DHT22;67584;51.400;6.692;2023-09-30T12:09:34;24.90;46.30
78325;DHT22;67584;51.400;6.692;2023-09-30T12:12:03;24.50;47.30
78325;DHT22;67584;51.400;6.692;2023-09-30T12:14:29;23.90;48.90
78325;DHT22;67584;51.400;6.692;2023-09-30T12:16:56;23.80;49.50
78325;DHT22;67584;51.400;6.692;2023-09-30T12:19:21;24.10;49.30
78325;DHT22;67584;51.400;6.692;2023-09-30T12:21:47;24.10;49.10
78325;DHT22;67584;51.400;6.692;2023-09-30T12:24:17;24.70;48.70
78325;DHT22;67584;51.400;6.692;2023-09-30T12:26:45;25.50;46.50
78325;DHT22;67584;51.400;6.692;2023-09-30T12:29:17;25.50;45.90
78325;DHT22;67584;51.400;6.692;2023-09-30T12:31:44;25.00;46.30
78325;DHT22;67584;51.400;6.692;2023-09-30T12:34:12;24.20;48.00
78325;DHT22;67584;51.400;6.692;2023-09-30T12:36:40;24.80;47.20
78325;DHT22;67584;51.400;6.692;2023-09-30T12:39:07;24.80;47.50
78325;DHT22;67584;51.400;6.692;2023-09-30T12:41:39;24.90;46.30
78325;DHT22;67584;51.400;6.692;2023-09-30T12:44:09;24.80;47.80
78325;DHT22;67584;51.400;6.692;2023-09-30T12:46:36;25.20;46.70
78325;DHT22;67584;51.400;6.692;2023-09-30T12:49:08;24.40;46.30
78325;DHT22;67584;51.400;6.692;2023-09-30T12:51:35;24.70;47.60
78325;DHT22;67584;51.400;6.692;2023-09-30T12:54:01;26.90;44.00
78325;DHT22;67584;51.400;6.692;2023-09-30T12:56:27;28.30;41.60
78325;DHT22;67584;51.400;6.692;2023-09-30T12:58:55;28.90;40.80
78325;DHT22;67584;51.400;6.692;2023-09-30T13:01:21;27.90;42.30
78325;DHT22;67584;51.400;6.692;2023-09-30T13:03:48;27.40;43.90
78325;DHT22;67584;51.400;6.692;2023-09-30T13:06:14;27.90;42.00
78325;DHT22;67584;51.400;6.692;2023-09-30T13:08:41;28.30;41.20
78325;DHT22;67584;51.400;6.692;2023-09-30T13:11:07;27.80;41.80
78325;DHT22;67584;51.400;6.692;2023-09-30T13:13:33;28.30;41.00
78325;DHT22;67584;51.400;6.692;2023-09-30T13:15:59;29.20;38.30
78325;DHT22;67584;51.400;6.692;2023-09-30T13:18:25;29.00;38.40
78325;DHT22;67584;51.400;6.692;2023-09-30T13:20:51;28.10;40.20
78325;DHT22;67584;51.400;6.692;2023-09-30T13:23:18;28.00;40.60
78325;DHT22;67584;51.400;6.692;2023-09-30T13:25:44;27.10;42.10
78325;DHT22;67584;51.400;6.692;2023-09-30T13:28:10;27.20;41.80
78325;DHT22;67584;51.400;6.692;2023-09-30T13:30:36;26.60;43.10
78325;DHT22;67584;51.400;6.692;2023-09-30T13:33:02;25.90;44.50
78325;DHT22;67584;51.400;6.692;2023-09-30T13:35:27;24.80;45.80
78325;DHT22;67584;51.400;6.692;2023-09-30T13:37:53;24.70;46.00
78325;DHT22;67584;51.400;6.692;2023-09-30T13:40:19;24.10;47.60
78325;DHT22;67584;51.400;6.692;2023-09-30T13:42:45;23.60;49.00
78325;DHT22;67584;51.400;6.692;2023-09-30T13:45:12;23.50;49.40
78325;DHT22;67584;51.400;6.692;2023-09-30T13:47:38;23.50;49.70
78325;DHT22;67584;51.400;6.692;2023-09-30T13:50:04;23.80;49.40
78325;DHT22;67584;51.400;6.692;2023-09-30T13:52:33;23.70;49.40
78325;DHT22;67584;51.400;6.692;2023-09-30T13:54:59;23.70;49.60
78325;DHT22;67584;51.400;6.692;2023-09-30T13:57:25;23.70;49.80
78325;DHT22;67584;51.400;6.692;2023-09-30T13:59:51;23.90;50.00
78325;DHT22;67584;51.400;6.692;2023-09-30T14:02:16;23.90;49.70
78325;DHT22;67584;51.400;6.692;2023-09-30T14:04:42;23.90;49.40
78325;DHT22;67584;51.400;6.692;2023-09-30T14:07:08;24.00;49.20
78325;DHT22;67584;51.400;6.692;2023-09-30T14:09:34;23.90;49.30
78325;DHT22;67584;51.400;6.692;2023-09-30T14:11:59;23.70;50.00
78325;DHT22;67584;51.400;6.692;2023-09-30T14:14:25;23.80;50.30
78325;DHT22;67584;51.400;6.692;2023-09-30T14:16:51;24.10;50.10
78325;DHT22;67584;51.400;6.692;2023-09-30T14:19:17;25.60;47.90
78325;DHT22;67584;51.400;6.692;2023-09-30T14:21:43;26.10;45.70
78325;DHT22;67584;51.400;6.692;2023-09-30T14:24:10;27.00;44.90
78325;DHT22;67584;51.400;6.692;2023-09-30T14:26:36;28.20;42.40
78325;DHT22;67584;51.400;6.692;2023-09-30T14:29:02;28.90;39.80
78325;DHT22;67584;51.400;6.692;2023-09-30T14:31:27;28.80;41.00
78325;DHT22;67584;51.400;6.692;2023-09-30T14:33:53;29.30;40.10
78325;DHT22;67584;51.400;6.692;2023-09-30T14:36:20;29.20;39.50
78325;DHT22;67584;51.400;6.692;2023-09-30T14:38:45;30.00;37.60
78325;DHT22;67584;51.400;6.692;2023-09-30T14:41:14;29.50;36.20
78325;DHT22;67584;51.400;6.692;2023-09-30T14:43:39;28.90;38.70
78325;DHT22;67584;51.400;6.692;2023-09-30T14:46:05;28.60;38.90
78325;DHT22;67584;51.400;6.692;2023-09-30T14:48:31;27.70;40.20
78325;DHT22;67584;51.400;6.692;2023-09-30T14:50:57;27.30;40.60
78325;DHT22;67584;51.400;6.692;2023-09-30T14:53:23;27.50;39.50
78325;DHT22;67584;51.400;6.692;2023-09-30T14:55:50;26.70;41.80
78325;DHT22;67584;51.400;6.692;2023-09-30T14:58:15;26.40;42.10
78325;DHT22;67584;51.400;6.692;2023-09-30T15:00:41;26.20;42.10
78325;DHT22;67584;51.400;6.692;2023-09-30T15:03:07;26.20;42.20
78325;DHT22;67584;51.400;6.692;2023-09-30T15:05:33;26.20;42.00
78325;DHT22;67584;51.400;6.692;2023-09-30T15:07:59;26.80;41.50
78325;DHT22;67584;51.400;6.692;2023-09-30T15:10:27;27.50;40.30
78325;DHT22;67584;51.400;6.692;2023-09-30T15:12:54;27.90;39.80
78325;DHT22;67584;51.400;6.692;2023-09-30T15:15:20;27.20;40.50
78325;DHT22;67584;51.400;6.692;2023-09-30T15:17:45;26.80;40.80
78325;DHT22;67584;51.400;6.692;2023-09-30T15:20:12;26.40;41.20
78325;DHT22;67584;51.400;6.692;2023-09-30T15:22:37;26.40;41.60
78325;DHT22;67584;51.400;6.692;2023-09-30T15:25:03;26.00;42.00
78325;DHT22;67584;51.400;6.692;2023-09-30T15:27:30;25.80;42.30
78325;DHT22;67584;51.400;6.692;2023-09-30T15:30:00;25.00;42.90
78325;DHT22;67584;51.400;6.692;2023-09-30T15:32:25;24.30;44.20
78325;DHT22;67584;51.400;6.692;2023-09-30T15:34:51;24.00;45.30
78325;DHT22;67584;51.400;6.692;2023-09-30T15:37:17;23.70;46.20
78325;DHT22;67584;51.400;6.692;2023-09-30T15:39:43;23.80;46.20
78325;DHT22;67584;51.400;6.692;2023-09-30T15:42:09;24.00;46.10
78325;DHT22;67584;51.400;6.692;2023-09-30T15:44:37;24.50;45.70
78325;DHT22;67584;51.400;6.692;2023-09-30T15:47:05;24.60;45.30
78325;DHT22;67584;51.400;6.692;2023-09-30T15:49:32;24.90;45.20
78325;DHT22;67584;51.400;6.692;2023-09-30T15:51:57;24.70;45.70
78325;DHT22;67584;51.400;6.692;2023-09-30T15:54:23;24.70;45.80
78325;DHT22;67584;51.400;6.692;2023-09-30T15:56:49;24.70;45.70